Time;durP1;ratioP1;P1;durP2;ratioP2;P2;SDS_P1;SDS_P2;PMS_P1;PMS_P2;Temp;Humidity;BMP_temperature;BMP_pressure;BME280_temperature;BME280_humidity;BME280_pressure;Samples;Min_cycle;Max_cycle;Signal;HPM_P1;HPM_P2
2022/10/13 00:01:18;;;;;;;24.27;11.00;;;;;;;13.42;61.33;101465.89;124593;1099;104389;-75
2022/10/13 00:03:51;;;;;;;22.43;10.77;;;;;;;13.38;61.39;101460.44;124638;1099;104172;-75
2022/10/13 00:06:26;;;;;;;21.37;10.93;;;;;;;13.36;61.40;101470.92;124656;1099;104682;-75
2022/10/13 00:08:58;;;;;;;24.80;11.40;;;;;;;13.34;61.30;101463.77;124599;1099;104172;-75
2022/10/13 00:11:31;;;;;;;23.17;11.37;;;;;;;13.35;61.08;101465.58;124566;1099;104220;-75
2022/10/13 00:14:04;;;;;;;22.83;11.40;;;;;;;13.34;61.40;101463.77;124545;1099;104126;-75
2022/10/13 00:16:37;;;;;;;23.33;11.83;;;;;;;13.33;60.85;101470.80;124611;1098;104198;-76
2022/10/13 00:19:09;;;;;;;22.93;11.67;;;;;;;13.29;61.75;101469.75;124068;1099;104176;-75
2022/10/13 00:21:40;;;;;;;21.83;12.00;;;;;;;13.28;61.39;101467.94;124626;1099;104166;-76
2022/10/13 00:24:12;;;;;;;23.85;11.40;;;;;;;13.31;61.46;101465.43;124679;1099;103074;-75
2022/10/13 00:26:44;;;;;;;22.73;11.53;;;;;;;13.36;61.88;101456.84;124579;1098;104265;-75
2022/10/13 00:29:16;;;;;;;23.30;12.60;;;;;;;13.37;61.18;101453.35;124649;1098;104239;-75
2022/10/13 00:31:47;;;;;;;24.93;12.50;;;;;;;13.37;61.66;101451.64;124254;1099;102831;-75
2022/10/13 00:34:18;;;;;;;24.07;12.27;;;;;;;13.33;62.03;101457.61;124256;1099;104331;-76
2022/10/13 00:36:49;;;;;;;23.73;11.67;;;;;;;13.29;61.79;101455.65;124636;1099;103027;-75
2022/10/13 00:39:21;;;;;;;21.67;12.43;;;;;;;13.27;61.47;101458.22;124616;1099;104237;-75
2022/10/13 00:41:53;;;;;;;23.47;12.67;;;;;;;13.23;61.73;101452.77;124591;1099;104233;-75
2022/10/13 00:45:03;;;;;;;24.03;12.30;;;;;;;13.20;62.12;101461.47;124633;1099;104258;-75
2022/10/13 00:47:40;;;;;;;23.80;12.43;;;;;;;13.16;61.43;101463.92;124634;1099;104198;-76
2022/10/13 00:50:17;;;;;;;25.67;13.27;;;;;;;13.15;61.55;101467.37;124654;1099;104267;-75
2022/10/13 00:52:51;;;;;;;24.50;12.37;;;;;;;13.10;61.90;101465.48;124550;1099;105698;-75
2022/10/13 00:55:26;;;;;;;25.05;13.40;;;;;;;13.11;62.39;101455.83;124617;1099;104230;-75
2022/10/13 00:58:00;;;;;;;26.10;13.00;;;;;;;13.14;61.93;101455.95;124615;1099;104254;-75
2022/10/13 01:00:35;;;;;;;25.87;13.37;;;;;;;13.16;62.08;101454.27;124662;1099;104239;-75
2022/10/13 01:03:06;;;;;;;24.90;12.77;;;;;;;13.18;62.18;101464.87;124785;1098;104238;-75
2022/10/13 01:05:38;;;;;;;27.07;13.37;;;;;;;13.14;62.03;101461.22;124601;1098;104306;-75
2022/10/13 01:08:11;;;;;;;25.37;13.37;;;;;;;13.11;61.83;101471.64;124582;1099;104265;-75
2022/10/13 01:10:51;;;;;;;28.37;13.70;;;;;;;13.06;62.30;101462.66;124527;1099;104172;-75
2022/10/13 01:13:30;;;;;;;26.70;13.95;;;;;;;13.01;62.72;101461.55;124590;1099;104271;-76
2022/10/13 01:16:16;;;;;;;26.13;13.70;;;;;;;12.95;62.72;101459.58;124609;1099;102338;-75
2022/10/13 01:18:55;;;;;;;24.93;13.10;;;;;;;12.91;62.45;101461.16;124614;1099;104166;-75
2022/10/13 01:21:37;;;;;;;26.97;13.53;;;;;;;12.88;62.45;101471.57;124618;1099;104185;-75
2022/10/13 01:24:32;;;;;;;25.27;11.97;;;;;;;12.83;62.54;101470.48;124600;1099;102925;-75
2022/10/13 01:27:14;;;;;;;26.73;13.63;;;;;;;12.80;62.79;101459.83;124658;1099;104220;-75
2022/10/13 01:30:10;;;;;;;27.23;13.43;;;;;;;12.81;62.92;101451.10;124583;1099;103029;-76
2022/10/13 01:33:00;;;;;;;26.47;12.60;;;;;;;12.85;62.69;101463.55;124584;1099;104211;-75
2022/10/13 01:35:44;;;;;;;25.70;12.77;;;;;;;12.86;62.70;101460.08;124163;1099;104242;-75
2022/10/13 01:38:29;;;;;;;26.30;12.28;;;;;;;12.84;62.64;101459.12;124609;1099;104297;-75
2022/10/13 01:41:10;;;;;;;26.07;11.80;;;;;;;12.83;62.78;101466.97;124631;1099;103069;-75
2022/10/13 01:43:45;;;;;;;22.40;11.10;;;;;;;12.81;63.00;101461.63;124575;1098;104239;-75
2022/10/13 01:46:22;;;;;;;25.57;12.13;;;;;;;12.80;62.62;101454.56;124599;1099;101958;-75
2022/10/13 01:48:58;;;;;;;24.03;11.10;;;;;;;12.77;62.88;101459.70;124566;1099;104239;-75
2022/10/13 01:51:32;;;;;;;23.23;10.70;;;;;;;12.76;62.56;101464.08;124557;1099;104236;-75
2022/10/13 01:54:03;;;;;;;22.75;10.88;;;;;;;12.76;63.09;101466.71;124600;1099;104241;-76
2022/10/13 01:56:34;;;;;;;20.33;10.17;;;;;;;12.76;62.53;101465.78;124198;1099;104246;-75
2022/10/13 01:59:11;;;;;;;22.00;11.13;;;;;;;12.76;62.54;101471.05;124575;1099;104185;-75
2022/10/13 02:01:55;;;;;;;25.77;10.80;;;;;;;12.76;63.01;101469.34;124241;1099;104338;-75
2022/10/13 02:04:37;;;;;;;19.57;9.80;;;;;;;12.79;62.59;101465.03;124606;1099;104251;-75
2022/10/13 02:07:23;;;;;;;21.83;10.63;;;;;;;12.82;62.66;101468.67;124570;1099;102806;-75
2022/10/13 02:10:02;;;;;;;21.60;10.90;;;;;;;12.83;62.63;101469.60;124638;1099;104185;-75
2022/10/13 02:12:38;;;;;;;22.77;10.67;;;;;;;12.82;62.62;101462.52;124562;1099;104166;-75
2022/10/13 02:15:16;;;;;;;21.97;10.77;;;;;;;12.79;63.00;101471.19;124568;1099;102901;-75
2022/10/13 02:17:47;;;;;;;20.50;10.77;;;;;;;12.75;62.73;101466.64;124625;1099;104153;-74
2022/10/13 02:20:20;;;;;;;22.40;11.30;;;;;;;12.73;63.11;101465.66;124631;1099;104233;-75
2022/10/13 02:22:57;;;;;;;21.85;11.08;;;;;;;12.73;62.89;101463.02;124633;1098;103398;-75
2022/10/13 02:25:29;;;;;;;24.87;10.50;;;;;;;12.73;62.81;101463.02;124521;1099;104204;-75
2022/10/13 02:28:04;;;;;;;21.57;11.17;;;;;;;12.71;63.05;101468.23;124187;1099;104203;-75
2022/10/13 02:30:39;;;;;;;22.15;11.03;;;;;;;12.71;63.08;101464.70;124544;1099;104268;-75
2022/10/13 02:33:11;;;;;;;21.03;10.53;;;;;;;12.69;62.73;101463.75;124606;1099;102970;-75
2022/10/13 02:35:43;;;;;;;23.17;10.47;;;;;;;12.71;63.40;101469.97;124563;1099;104267;-75
2022/10/13 02:38:16;;;;;;;22.40;10.37;;;;;;;12.72;62.85;101464.77;124634;1099;104721;-76
2022/10/13 02:40:47;;;;;;;23.43;10.47;;;;;;;12.72;62.73;101471.78;124646;1099;104259;-75
2022/10/13 02:43:18;;;;;;;23.87;10.43;;;;;;;12.70;62.65;101473.42;124643;1098;104278;-76
2022/10/13 02:45:49;;;;;;;23.40;10.33;;;;;;;12.66;62.68;101475.04;124575;1099;104313;-75
2022/10/13 02:48:20;;;;;;;20.53;9.80;;;;;;;12.65;62.59;101469.70;124636;1099;104229;-76
2022/10/13 02:50:51;;;;;;;23.97;10.90;;;;;;;12.64;63.06;101471.45;124497;1099;104205;-75
2022/10/13 02:53:22;;;;;;;21.87;10.47;;;;;;;12.63;62.61;101471.39;124589;1099;104249;-75
2022/10/13 02:55:53;;;;;;;21.87;10.70;;;;;;;12.62;63.14;101475.77;124596;1099;104686;-75
2022/10/13 02:58:24;;;;;;;24.97;11.13;;;;;;;12.62;63.17;101475.77;124602;1099;102847;-75
2022/10/13 03:01:04;;;;;;;23.13;11.27;;;;;;;12.62;62.94;101475.77;124209;1099;104348;-75
2022/10/13 03:03:35;;;;;;;24.47;10.87;;;;;;;12.62;63.13;101474.84;124505;1099;104198;-74
2022/10/13 03:06:08;;;;;;;23.10;10.60;;;;;;;12.62;63.46;101480.11;124573;1099;104217;-75
2022/10/13 03:08:39;;;;;;;24.40;10.87;;;;;;;12.61;63.12;101471.32;124567;1099;105024;-75
2022/10/13 03:11:12;;;;;;;21.87;10.37;;;;;;;12.61;63.50;101480.97;124567;1099;102969;-75
2022/10/13 03:13:43;;;;;;;24.67;10.90;;;;;;;12.61;63.48;101480.97;124645;1099;104241;-75
2022/10/13 03:16:14;;;;;;;23.30;10.87;;;;;;;12.61;63.75;101483.59;124551;1098;104374;-75
2022/10/13 03:18:45;;;;;;;24.03;11.27;;;;;;;12.63;63.58;101479.28;124612;1098;104507;-74
2022/10/13 03:21:16;;;;;;;22.03;10.87;;;;;;;12.62;63.83;101486.30;124600;1099;104246;-74
2022/10/13 03:23:48;;;;;;;23.93;10.53;;;;;;;12.58;63.76;101476.45;124629;1099;102831;-75
2022/10/13 03:26:19;;;;;;;23.40;10.97;;;;;;;12.56;63.77;101484.29;124580;1099;104217;-74
2022/10/13 03:28:52;;;;;;;24.07;12.43;;;;;;;12.54;63.81;101483.33;124529;1098;104401;-74
2022/10/13 03:31:23;;;;;;;22.90;11.20;;;;;;;12.50;63.85;101481.38;124599;1098;104640;-75
2022/10/13 03:33:54;;;;;;;22.35;11.45;;;;;;;12.46;64.35;101482.08;124590;1099;102168;-75
2022/10/13 03:36:25;;;;;;;21.97;11.93;;;;;;;12.43;64.25;101483.69;124573;1099;102946;-74
2022/10/13 03:38:57;;;;;;;25.90;11.90;;;;;;;12.36;64.05;101485.16;124182;1099;103220;-75
2022/10/13 03:41:28;;;;;;;25.33;12.20;;;;;;;12.25;64.31;101486.39;124603;1099;104341;-74
2022/10/13 03:44:00;;;;;;;25.13;12.30;;;;;;;12.12;64.27;101480.57;124625;1099;102254;-75
2022/10/13 03:46:33;;;;;;;26.55;12.47;;;;;;;11.99;64.56;101479.12;124209;1099;104281;-75
2022/10/13 03:49:04;;;;;;;24.80;11.73;;;;;;;11.93;64.75;101480.59;124644;1098;104288;-74
2022/10/13 03:51:35;;;;;;;25.73;12.73;;;;;;;11.87;64.74;101482.08;124591;1099;104217;-74
2022/10/13 03:54:07;;;;;;;28.50;12.77;;;;;;;11.85;64.90;101482.83;124562;1099;104241;-75
2022/10/13 03:56:38;;;;;;;25.13;12.47;;;;;;;11.82;65.21;101485.31;124549;1099;102193;-74
2022/10/13 03:59:11;;;;;;;26.10;12.87;;;;;;;11.81;65.34;101486.13;124598;1099;102845;-74
2022/10/13 04:01:43;;;;;;;23.07;12.07;;;;;;;11.82;65.58;101487.95;124591;1099;104185;-75
2022/10/13 04:04:14;;;;;;;25.77;12.87;;;;;;;11.83;65.63;101477.50;124586;1099;104269;-75
2022/10/13 04:06:46;;;;;;;23.37;12.80;;;;;;;11.86;65.77;101482.01;124585;1099;104245;-75
2022/10/13 04:09:17;;;;;;;27.50;13.23;;;;;;;11.90;65.96;101478.67;124653;1099;104271;-76
2022/10/13 04:11:51;;;;;;;24.47;13.00;;;;;;;11.94;66.21;101477.14;124727;1099;104302;-75
2022/10/13 04:14:23;;;;;;;27.27;13.37;;;;;;;11.94;66.02;101477.14;124954;1099;104166;-75
2022/10/13 04:16:54;;;;;;;24.77;13.20;;;;;;;11.94;66.35;101479.77;124708;1098;104326;-76
2022/10/13 04:19:25;;;;;;;26.40;12.57;;;;;;;11.94;66.40;101477.14;124763;1099;104425;-76
2022/10/13 04:21:56;;;;;;;26.03;12.47;;;;;;;11.93;66.55;101477.95;124704;1099;104242;-75
2022/10/13 04:24:27;;;;;;;25.10;12.70;;;;;;;11.86;66.54;101479.38;124877;1099;104734;-75
2022/10/13 04:26:58;;;;;;;23.83;12.53;;;;;;;11.79;66.56;101486.06;124815;1099;102287;-74
2022/10/13 04:29:30;;;;;;;27.50;13.60;;;;;;;11.73;66.67;101488.41;124916;1099;103082;-76
2022/10/13 04:32:03;;;;;;;24.97;13.47;;;;;;;11.67;66.82;101485.48;124630;1099;104331;-75
2022/10/13 04:34:34;;;;;;;24.70;12.40;;;;;;;11.64;66.76;101482.71;124697;1099;104208;-75
2022/10/13 04:37:05;;;;;;;22.20;12.00;;;;;;;11.60;66.41;101484.31;124592;1099;102924;-75
2022/10/13 04:39:37;;;;;;;26.43;12.10;;;;;;;11.58;67.18;101479.83;124184;1102;104265;-74
2022/10/13 04:42:08;;;;;;;21.95;12.35;;;;;;;11.56;67.31;101477.13;124711;1099;103034;-75
2022/10/13 04:44:42;;;;;;;25.27;13.07;;;;;;;11.53;67.22;101482.23;124600;1099;104396;-75
2022/10/13 04:47:15;;;;;;;25.88;12.75;;;;;;;11.50;67.23;101482.98;124541;1099;102639;-75
2022/10/13 04:49:46;;;;;;;30.57;13.67;;;;;;;11.49;67.88;101475.02;124629;1098;111963;-75
2022/10/13 04:52:18;;;;;;;26.93;13.13;;;;;;;11.48;67.75;101482.02;124679;1099;102302;-75
2022/10/13 04:54:50;;;;;;;27.77;14.03;;;;;;;11.53;68.12;101473.43;124583;1099;104283;-75
2022/10/13 04:57:21;;;;;;;27.80;13.20;;;;;;;11.57;67.94;101481.53;124611;1099;104231;-75
2022/10/13 04:59:52;;;;;;;30.07;14.33;;;;;;;11.62;68.46;101471.23;124806;1099;104261;-76
2022/10/13 05:02:24;;;;;;;26.23;13.87;;;;;;;11.65;68.45;101479.27;124695;1098;104166;-76
2022/10/13 05:04:55;;;;;;;29.27;14.67;;;;;;;11.72;68.34;101483.08;124880;1098;104194;-76
2022/10/13 05:07:26;;;;;;;24.75;13.55;;;;;;;11.76;68.73;101475.41;116118;1099;10002147;-76
2022/10/13 05:09:57;;;;;;;28.33;13.53;;;;;;;11.79;68.70;101472.91;125058;1099;104686;-76
2022/10/13 05:12:28;;;;;;;24.43;13.37;;;;;;;11.80;68.57;101484.36;124971;1099;104382;-76
2022/10/13 05:15:02;;;;;;;24.07;13.07;;;;;;;11.82;68.94;101485.31;125144;1099;104236;-76
2022/10/13 05:17:35;;;;;;;24.10;13.37;;;;;;;11.83;68.78;101490.64;124680;1099;104229;-76
2022/10/13 05:20:12;;;;;;;23.43;12.63;;;;;;;11.83;68.66;101489.76;124600;1099;104245;-76
2022/10/13 05:22:43;;;;;;;27.15;14.60;;;;;;;11.80;68.89;101489.61;124650;1099;104214;-76
2022/10/13 05:25:14;;;;;;;26.10;13.40;;;;;;;11.82;69.19;101490.58;124717;1099;104166;-76
2022/10/13 05:27:46;;;;;;;25.63;14.10;;;;;;;11.83;69.00;101490.64;124649;1099;104236;-75
2022/10/13 05:30:18;;;;;;;27.13;14.43;;;;;;;11.88;69.34;101490.86;124676;1099;102444;-76
2022/10/13 05:32:49;;;;;;;26.47;14.13;;;;;;;11.93;69.46;101499.89;124241;1099;104239;-76
2022/10/13 05:35:24;;;;;;;25.90;13.50;;;;;;;11.90;69.30;101504.08;124214;1099;104290;-75
2022/10/13 05:37:56;;;;;;;26.77;13.57;;;;;;;11.88;69.35;101507.53;124620;1099;105166;-75
2022/10/13 05:40:29;;;;;;;29.50;14.90;;;;;;;11.85;69.34;101510.02;124615;1099;104261;-76
2022/10/13 05:43:07;;;;;;;25.50;14.07;;;;;;;11.86;69.72;101509.20;124313;1099;104303;-76
2022/10/13 05:45:38;;;;;;;27.77;14.10;;;;;;;11.89;69.60;101516.34;124276;1102;104159;-76
2022/10/13 05:48:15;;;;;;;28.23;13.80;;;;;;;11.96;69.69;101517.55;124702;1099;104235;-76
2022/10/13 05:50:50;;;;;;;27.10;13.83;;;;;;;12.02;69.95;101510.83;125460;1099;104942;-77
2022/10/13 05:53:25;;;;;;;27.77;14.20;;;;;;;12.04;69.58;101519.72;124848;1099;102283;-76
2022/10/13 05:56:05;;;;;;;25.37;13.00;;;;;;;12.08;69.81;101517.23;124313;1099;104308;-77
2022/10/13 05:58:40;;;;;;;24.70;13.10;;;;;;;12.11;69.88;101517.38;124692;1099;104208;-75
2022/10/13 06:01:15;;;;;;;27.90;12.53;;;;;;;12.15;70.15;101509.66;124633;1099;104163;-75
2022/10/13 06:03:48;;;;;;;27.37;12.83;;;;;;;12.16;69.72;101518.47;124663;1099;104217;-76
2022/10/13 06:06:24;;;;;;;23.27;11.97;;;;;;;12.22;69.94;101524.01;124687;1099;104204;-75
2022/10/13 06:09:00;;;;;;;29.40;13.00;;;;;;;12.23;69.99;101521.45;124715;1099;104234;-76
2022/10/13 06:11:40;;;;;;;26.13;12.13;;;;;;;12.20;70.02;101526.58;124943;1099;106489;-75
2022/10/13 06:14:23;;;;;;;25.37;12.77;;;;;;;12.16;69.76;101529.88;124343;1099;104137;-76
2022/10/13 06:17:00;;;;;;;24.47;12.13;;;;;;;12.15;69.99;101533.33;124701;1099;102506;-76
2022/10/13 06:19:36;;;;;;;26.67;12.87;;;;;;;12.16;70.01;101536.89;124674;1099;104225;-76
2022/10/13 06:22:16;;;;;;;26.90;13.17;;;;;;;12.22;70.25;101529.27;124681;1099;104162;-76
2022/10/13 06:24:48;;;;;;;28.40;13.23;;;;;;;12.22;70.02;101534.53;124575;1099;104236;-76
2022/10/13 06:27:20;;;;;;;24.20;12.33;;;;;;;12.27;70.30;101537.38;124634;1099;102860;-75
2022/10/13 06:30:00;;;;;;;25.33;13.23;;;;;;;12.33;70.31;101540.29;124622;1099;104229;-76
2022/10/13 06:32:34;;;;;;;29.00;12.50;;;;;;;12.33;70.31;101535.91;124658;1099;102870;-76
2022/10/13 06:35:15;;;;;;;26.17;12.33;;;;;;;12.31;70.15;101532.33;124182;1099;104204;-76
2022/10/13 06:37:54;;;;;;;25.70;12.93;;;;;;;12.38;70.26;101538.75;125887;1099;104067;-76
2022/10/13 06:40:26;;;;;;;28.37;12.57;;;;;;;12.40;69.91;101532.73;124660;1099;103639;-77
2022/10/13 06:43:00;;;;;;;29.17;12.47;;;;;;;12.40;70.02;101534.45;124839;1099;104163;-77
2022/10/13 06:45:31;;;;;;;25.03;12.50;;;;;;;12.45;70.42;101539.92;124322;1099;104162;-76
2022/10/13 06:51:03;;;;;;;24.67;11.53;;;;;;;12.55;70.37;101537.77;124282;1099;104235;-76
2022/10/13 06:53:38;;;;;;;24.90;11.10;;;;;;;12.58;70.43;101543.16;124611;1099;102928;-77
2022/10/13 06:56:13;;;;;;;21.57;10.67;;;;;;;12.64;70.47;101545.18;124646;1099;104235;-76
2022/10/13 06:58:45;;;;;;;25.43;11.00;;;;;;;12.70;70.34;101547.16;124267;1099;104249;-76
2022/10/13 07:01:36;;;;;;;26.27;11.80;;;;;;;12.80;70.47;101544.11;124307;1102;105231;-75
2022/10/13 07:04:10;;;;;;;28.07;12.60;;;;;;;12.92;70.65;101546.38;125957;1098;102272;-77
2022/10/13 07:06:46;;;;;;;31.90;12.77;;;;;;;12.98;70.53;101540.45;124645;1099;104261;-76
2022/10/13 07:09:21;;;;;;;29.27;13.70;;;;;;;13.06;70.58;101539.95;124219;1099;102841;-76
2022/10/13 07:11:55;;;;;;;30.10;12.70;;;;;;;13.10;70.35;101539.27;124648;1099;102053;-76
2022/10/13 07:14:25;;;;;;;;;;;;;;;13.11;70.78;101537.52;125028;1099;104271;-77
2022/10/13 07:17:17;;;;;;;27.13;11.60;;;;;;;13.11;70.94;101545.42;125176;1098;102496;-78
2022/10/13 07:20:01;;;;;;;24.87;11.20;;;;;;;13.10;70.38;101538.34;124347;1099;102197;-75
2022/10/13 07:22:37;;;;;;;21.10;9.00;;;;;;;13.13;69.91;101530.56;124310;1099;102825;-77
2022/10/13 07:25:14;;;;;;;23.90;10.03;;;;;;;13.09;69.47;101532.18;124796;1102;102775;-76
2022/10/13 07:28:08;;;;;;;24.17;10.30;;;;;;;13.16;69.82;101532.44;125028;1099;104278;-76
2022/10/13 07:30:47;;;;;;;22.10;9.40;;;;;;;13.15;69.73;101526.28;124292;1099;102345;-74
2022/10/13 07:33:22;;;;;;;24.40;9.63;;;;;;;13.19;69.35;101530.82;125504;1099;104178;-74
2022/10/13 07:35:53;;;;;;;23.67;10.30;;;;;;;13.19;69.81;101522.91;124624;1099;104214;-75
2022/10/13 07:38:25;;;;;;;22.93;9.37;;;;;;;13.22;69.16;101532.70;124397;1099;102623;-77
2022/10/13 07:40:59;;;;;;;21.23;8.80;;;;;;;13.24;69.71;101526.62;124729;1099;102867;-77
2022/10/13 07:43:53;;;;;;;23.23;9.33;;;;;;;13.24;69.34;101517.83;124346;1101;107709;-76
2022/10/13 07:46:39;;;;;;;25.97;10.17;;;;;;;13.39;69.72;101534.31;124664;1099;104245;-76
2022/10/13 07:49:14;;;;;;;23.30;9.53;;;;;;;13.39;69.16;101541.33;124666;1099;102903;-75
2022/10/13 07:51:47;;;;;;;20.33;9.83;;;;;;;13.28;69.04;101543.48;124262;1099;102837;-75
2022/10/13 07:54:22;;;;;;;24.77;11.30;;;;;;;13.16;68.83;101541.23;124885;1098;104195;-75
2022/10/13 07:57:00;;;;;;;32.73;17.50;;;;;;;13.12;68.42;101547.23;124626;1099;102739;-75
2022/10/13 07:59:33;;;;;;;35.00;19.93;;;;;;;13.05;68.85;101545.16;124677;1099;104203;-75
2022/10/13 08:02:05;;;;;;;27.98;14.80;;;;;;;12.98;68.67;101550.99;124722;1099;104259;-73
2022/10/13 08:04:37;;;;;;;26.40;12.43;;;;;;;13.01;68.85;101543.22;124726;1099;102218;-73
2022/10/13 08:07:10;;;;;;;24.17;12.50;;;;;;;13.08;68.75;101540.02;124828;1099;103086;-72
2022/10/13 08:09:42;;;;;;;28.03;14.00;;;;;;;13.07;68.81;101543.48;124599;1099;104313;-72
2022/10/13 08:12:14;;;;;;;24.33;10.93;;;;;;;13.03;68.94;101549.48;124638;1098;104175;-73
2022/10/13 08:14:46;;;;;;;25.20;12.27;;;;;;;13.03;69.21;101546.84;124674;1099;104182;-74
2022/10/13 08:17:19;;;;;;;27.07;12.60;;;;;;;13.06;69.17;101546.97;124644;1099;104218;-75
2022/10/13 08:19:54;;;;;;;22.77;9.87;;;;;;;13.08;69.50;101540.91;124645;1099;104235;-74
2022/10/13 08:22:33;;;;;;;26.50;11.83;;;;;;;13.05;69.20;101545.16;124585;1099;104248;-75
2022/10/13 08:25:13;;;;;;;23.77;10.33;;;;;;;12.94;69.15;101537.69;124665;1099;103771;-74
2022/10/13 08:27:46;;;;;;;25.37;11.03;;;;;;;12.91;68.87;101537.55;124769;1099;104226;-75
2022/10/13 08:30:27;;;;;;;24.70;10.83;;;;;;;12.95;69.02;101536.86;124994;1098;104235;-74
2022/10/13 08:32:59;;;;;;;26.13;10.90;;;;;;;13.02;69.09;101540.65;124962;1099;104332;-75
2022/10/13 08:35:34;;;;;;;24.43;11.20;;;;;;;13.09;69.50;101537.45;124842;1099;104194;-75
2022/10/13 08:38:07;;;;;;;24.57;10.30;;;;;;;13.16;69.15;101533.33;124600;1099;104177;-74
2022/10/13 08:40:50;;;;;;;24.97;10.43;;;;;;;13.25;69.13;101533.70;124638;1099;104242;-74
2022/10/13 08:43:23;;;;;;;27.73;10.13;;;;;;;13.33;69.22;101530.50;125173;1099;102815;-74
2022/10/13 08:46:00;;;;;;;32.83;11.30;;;;;;;13.37;69.21;101533.36;124637;1099;104226;-75
2022/10/13 08:48:42;;;;;;;21.97;9.47;;;;;;;13.39;68.82;101530.78;124617;1099;104255;-76
2022/10/13 08:51:16;;;;;;;21.23;10.13;;;;;;;13.44;69.63;101538.02;125953;1098;104261;-75
2022/10/13 08:53:50;;;;;;;24.00;10.43;;;;;;;13.46;69.12;101539.01;124650;1099;104207;-75
2022/10/13 08:56:27;;;;;;;24.90;10.43;;;;;;;13.50;68.91;101539.13;124712;1099;104173;-75
2022/10/13 08:59:02;;;;;;;23.33;10.77;;;;;;;13.43;69.34;101543.23;124658;1099;104200;-76
2022/10/13 09:01:40;;;;;;;26.37;10.83;;;;;;;13.45;68.46;101542.47;124596;1099;104051;-75
2022/10/13 09:04:30;;;;;;;24.40;11.47;;;;;;;13.50;68.37;101547.93;124534;1098;104341;-76
2022/10/13 09:07:07;;;;;;;23.03;9.73;;;;;;;13.55;68.66;101546.37;124550;1099;104169;-75
2022/10/13 09:09:40;;;;;;;24.45;10.95;;;;;;;13.59;68.85;101548.30;124668;1099;102293;-75
2022/10/13 09:12:15;;;;;;;23.75;10.20;;;;;;;13.61;68.54;101551.89;124601;1099;104226;-76
2022/10/13 09:15:01;;;;;;;22.60;10.47;;;;;;;13.64;68.22;101549.38;124610;1099;102476;-76
2022/10/13 09:17:35;;;;;;;21.67;10.43;;;;;;;13.70;68.88;101550.45;124729;1098;105370;-76
2022/10/13 09:20:20;;;;;;;31.52;10.85;;;;;;;13.71;68.19;101553.14;124759;1099;104213;-75
2022/10/13 09:23:05;;;;;;;27.50;10.93;;;;;;;13.74;68.69;101555.02;124902;1099;104194;-75
2022/10/13 09:25:48;;;;;;;23.25;9.95;;;;;;;13.73;68.40;101547.94;124335;1099;118985;-74
2022/10/13 09:28:29;;;;;;;23.63;10.60;;;;;;;13.60;68.64;101552.75;124312;1099;104399;-73
2022/10/13 09:31:29;;;;;;;25.93;10.93;;;;;;;13.43;68.34;101559.05;126437;1098;104210;-74
2022/10/13 09:34:12;;;;;;;25.80;10.80;;;;;;;13.28;67.90;101557.55;124717;1098;104248;-74
2022/10/13 09:36:57;;;;;;;29.00;11.33;;;;;;;13.17;68.53;101555.33;124657;1099;104810;-74
2022/10/13 09:39:29;;;;;;;25.00;11.43;;;;;;;13.13;68.36;101554.28;124542;1099;104210;-75
2022/10/13 09:42:28;;;;;;;28.50;11.30;;;;;;;13.12;68.05;101556.02;124549;1098;104283;-74
2022/10/13 09:45:24;;;;;;;26.07;11.20;;;;;;;13.08;68.57;101553.20;124523;1099;105525;-73
2022/10/13 09:47:59;;;;;;;25.87;10.87;;;;;;;13.03;68.90;101555.63;124505;1098;104268;-73
2022/10/13 09:50:36;;;;;;;27.10;11.43;;;;;;;12.96;68.74;101561.46;124540;1099;104300;-74
2022/10/13 09:53:38;;;;;;;28.20;12.30;;;;;;;12.90;68.59;101554.22;124415;1099;103080;-74
2022/10/13 09:56:22;;;;;;;27.97;11.27;;;;;;;12.87;68.54;101553.16;124106;1101;104475;-73
2022/10/13 09:59:00;;;;;;;26.97;10.55;;;;;;;12.92;68.57;101543.75;124116;1099;104246;-74
2022/10/13 10:01:39;;;;;;;28.47;11.90;;;;;;;13.00;68.79;101546.71;124182;1099;104358;-74
2022/10/13 10:04:17;;;;;;;25.13;11.10;;;;;;;13.08;69.09;101545.29;124128;1103;104711;-75
2022/10/13 10:06:48;;;;;;;25.47;11.83;;;;;;;13.14;68.85;101550.82;124180;1102;104345;-74
2022/10/13 10:09:33;;;;;;;28.17;11.90;;;;;;;13.18;68.58;101550.09;124190;1102;103011;-74
2022/10/13 10:12:06;;;;;;;25.20;10.93;;;;;;;13.23;68.72;101543.30;124173;1100;104291;-74
2022/10/13 10:14:38;;;;;;;28.00;10.30;;;;;;;13.29;69.17;101545.27;124159;1100;103035;-74
2022/10/13 10:17:20;;;;;;;29.17;10.97;;;;;;;13.38;68.34;101544.80;124150;1102;104386;-73
2022/10/13 10:20:04;;;;;;;28.63;10.77;;;;;;;13.37;68.44;101546.54;124370;1099;104419;-74
2022/10/13 10:22:44;;;;;;;26.03;9.93;;;;;;;13.29;68.35;101540.92;124198;1102;104434;-74
2022/10/13 10:25:32;;;;;;;25.50;9.93;;;;;;;13.22;68.04;101544.12;124230;1102;104433;-74
2022/10/13 10:28:31;;;;;;;30.57;10.70;;;;;;;13.15;68.07;101536.81;124256;1099;104335;-75
2022/10/13 10:31:13;;;;;;;22.33;9.67;;;;;;;13.06;67.41;101542.59;124766;1098;104172;-75
2022/10/13 10:33:56;;;;;;;27.23;9.77;;;;;;;13.04;67.87;101540.71;124665;1099;102289;-76
2022/10/13 10:36:38;;;;;;;29.67;10.57;;;;;;;13.10;68.03;101541.90;124394;1099;104220;-75
2022/10/13 10:39:26;;;;;;;27.67;11.03;;;;;;;13.17;68.01;101528.98;124402;1099;104217;-76
2022/10/13 10:42:12;;;;;;;29.83;10.83;;;;;;;13.16;68.30;101533.33;124704;1099;104266;-75
2022/10/13 10:44:50;;;;;;;29.50;11.60;;;;;;;13.14;68.39;101532.37;124703;1099;102912;-75
2022/10/13 10:47:27;;;;;;;30.93;11.13;;;;;;;13.13;67.68;101522.66;124656;1099;120152;-75
2022/10/13 10:50:04;;;;;;;26.50;10.47;;;;;;;13.14;68.13;101519.20;124186;1102;104329;-74
2022/10/13 10:52:45;;;;;;;23.70;9.13;;;;;;;13.12;67.98;101526.16;124728;1099;104329;-75
2022/10/13 10:55:22;;;;;;;22.43;10.10;;;;;;;13.13;67.92;101515.67;124684;1099;105514;-74
2022/10/13 10:58:04;;;;;;;25.83;9.90;;;;;;;13.17;67.66;101511.42;124780;1099;104179;-73
2022/10/13 11:00:46;;;;;;;26.65;9.73;;;;;;;13.22;68.23;101499.31;124710;1099;103341;-75
2022/10/13 11:03:27;;;;;;;24.25;9.55;;;;;;;13.27;67.79;101503.03;124683;1099;103381;-76
2022/10/13 11:06:05;;;;;;;24.43;9.23;;;;;;;13.33;67.71;101509.41;124781;1098;104064;-76
2022/10/13 11:08:49;;;;;;;22.43;9.43;;;;;;;13.42;67.97;101499.27;124683;1099;102512;-77
2022/10/13 11:11:41;;;;;;;24.65;9.90;;;;;;;13.45;67.95;101494.13;124749;1099;104165;-75
2022/10/13 11:14:30;;;;;;;25.05;9.40;;;;;;;13.49;67.80;101490.75;124698;1098;104166;-74
2022/10/13 11:17:22;;;;;;;24.33;9.93;;;;;;;13.51;68.02;101486.45;124661;1098;101932;-74
2022/10/13 11:19:56;;;;;;;27.60;9.47;;;;;;;13.54;67.73;101490.93;124765;1098;102895;-76
2022/10/13 11:22:30;;;;;;;23.53;10.03;;;;;;;13.58;67.55;101491.11;125991;1098;102492;-76
2022/10/13 11:25:27;;;;;;;24.73;10.47;;;;;;;13.62;67.85;101482.49;124669;1099;104216;-74
2022/10/13 11:28:00;;;;;;;31.07;10.40;;;;;;;13.70;67.96;101481.88;124652;1099;101983;-76
2022/10/13 11:30:54;;;;;;;27.03;9.57;;;;;;;13.74;67.36;101483.80;124821;1099;104166;-75
2022/10/13 11:33:55;;;;;;;28.32;10.70;;;;;;;13.78;67.63;101473.42;124774;1099;104305;-75
2022/10/13 11:36:49;;;;;;;25.77;10.60;;;;;;;13.79;67.21;101482.23;124623;1099;104347;-74
2022/10/13 11:40:02;;;;;;;26.45;10.05;;;;;;;13.79;67.02;101479.59;124750;1099;104166;-74